Terminal Aerodrome Forecast
Issued by NWS

Home | Current Version | Previous Version | Text Only | Print | Product List | Glossary On
Versions: 1 2 3 4 5 6 7 8 9 10 11 12 13 14 15 16 17 18
000
FTUS42 TJSJ 302320
TAFJBQ
TAF
TJBQ 302320Z 3100/3124 11005KT P6SM FEW025 SCT080
     FM311400 08013KT P6SM SCT030 SCT060
     FM312300 12005KT P6SM FEW030 SCT070
      AMD NOT SKED 3102/3111=

USA.gov is the U.S. government's official web portal to all federal, state and local government web resources and services.